Moffett Field, CA

05:14 PM PDT del 30 Agosto 2014 (GMT -0700)
Moffett Federal Air Field | Change Station
CLOSE
Current Station
Aeroporto
Location: Moffett NAS,
Altitudine: 39 ft
Stazioni meteo nelle vicinanze

Alt. 39 ft 37.41 °N, 122.05 °W | Updated 18 minutes ago

Clear
Sereno
79 °F
Sembra 79 °F
N
18
Vento Variabile Vento da NNO

Oggi
Massima -- | Minima -- °F
--% Possibilità di precip.
Ieri
Massima -- | Minima -- °F
Precip. -- in
6:37 AM 7:39 PM
Luna crescente, 25% visible
Pressione 29.88 in
Visibilità 10.0 miglia
Nuvole Sereno
Punto di rugiada 57 °F
Umidità 47%
Piovosità 0.00 in
Spessore del manto nevoso Non disponibile.
Raggi UV 3 fuori da 12
Polline 7.70 fuori da 12
Qualità dell'aria Non disponibile.
Flu Activity Non disponibile.
METAR KNUQ 302356Z 34016KT 10SM CLR 26/14 A2987 RMK AO2 SLP118 T02610139 10272 20244 56008

More Conditions Fewer Conditions

Pressione 29.88 in
Visibilità 10.0 miglia
Nuvole Sereno
Punto di rugiada 57 °F
Umidità 47%
Piovosità 0.00 in
Spessore del manto nevoso Non disponibile.
Raggi UV 3 fuori da 12
Polline 7.70 fuori da 12
Qualità dell'aria Non disponibile.
Flu Activity Non disponibile.
METAR KNUQ 302356Z 34016KT 10SM CLR 26/14 A2987 RMK AO2 SLP118 T02610139 10272 20244 56008

More Conditions Fewer Conditions

10-Day Weather Forecast

Almanac

Astronomia

Aug. 30, 2014 Alba Tramonto
Ora attuale 06:37 PDT 19:39 PDT
Crepuscolo civile 06:10 PDT 20:06 PDT
Crepuscolo nautico 05:38 PDT 20:38 PDT
Crepuscolo astronomico 05:05 PDT 21:11 PDT
Luna 11:23 PDT (8/30) 22:24 PDT (8/30)
Estensione della luce visibile 13h 56m
Lunghezza del giorno
13h 02m
Tomorrow will be 2m 16s shorter.
Luna crescente, 25% of the Moon is Illuminated
Oggi
Luna crescente
Set 2
Primo quarto
Set 8
Luna piena
Set 15
Ultimo quarto
Set 24
Nuovo

Gli estremi di oggi

State Highs State Lows

Community

WunderPhotos

Upload Photos

1,748,696 foto caricate!

Nearby

Qualità dell'aria

  Qualità dell'aria Indice AQ Inquinante
Ieri Buono
PM2.5
Ieri Buono
OZONE
Sabato Buono
PM2.5
Domenica Buono
OZONE
Lunedì Buono
OZONE
Martedì Buono
PM2.5
Mercoledì Buono
OZONE

Profondità neve

Stazione Profondità Altitudine
Leavitt Meadows 0 in 7200 ft
Summit Meadow 0 in 9122 ft
Tahoe City Cross 0 in 6750 ft
CSS Lab 0 in 6900 ft
Adin Mountain 0 in 6200 ft

Attività sismica

Città  Distanza Mag. Data & Ora
Ridgemark, California 64 miglia 3.4 16:32 PDT
2014-08-29
The Geysers, California 105 miglia 2.7 14:53 PDT
2014-08-29
Ridgemark, California 64 miglia 3.0 14:44 PDT
2014-08-29
Minimo Magnitudo Mostrato è 2.5.

Temperature delle acque costiere

Località Temperatura
Nessun dato dalle stazioni

Stazioni meteo nelle vicinanze